sensor_id;sensor_type;location;lat;lon;timestamp;pressure;altitude;pressure_sealevel;temperature;humidity
53340;BME280;46212;50.258;19.062;2022-10-16T00:00:35;98685.75;;;12.23;88.11
53340;BME280;46212;50.258;19.062;2022-10-16T00:03:01;98686.03;;;12.25;88.19
53340;BME280;46212;50.258;19.062;2022-10-16T00:05:27;98710.50;;;12.27;88.68
53340;BME280;46212;50.258;19.062;2022-10-16T00:07:53;98700.19;;;12.18;88.70
53340;BME280;46212;50.258;19.062;2022-10-16T00:10:18;98711.09;;;12.22;89.21
53340;BME280;46212;50.258;19.062;2022-10-16T00:12:43;98705.44;;;12.16;89.21
53340;BME280;46212;50.258;19.062;2022-10-16T00:15:09;98711.91;;;12.13;89.56
53340;BME280;46212;50.258;19.062;2022-10-16T00:17:34;98694.06;;;12.05;89.61
53340;BME280;46212;50.258;19.062;2022-10-16T00:20:00;98707.44;;;12.16;89.46
53340;BME280;46212;50.258;19.062;2022-10-16T00:22:25;98710.03;;;12.19;89.64
53340;BME280;46212;50.258;19.062;2022-10-16T00:24:50;98705.44;;;12.16;89.96
53340;BME280;46212;50.258;19.062;2022-10-16T00:27:16;98709.44;;;12.15;89.84
53340;BME280;46212;50.258;19.062;2022-10-16T00:29:42;98705.59;;;12.13;90.04
53340;BME280;46212;50.258;19.062;2022-10-16T00:32:08;98696.06;;;11.96;89.89
53340;BME280;46212;50.258;19.062;2022-10-16T00:34:34;98698.69;;;11.90;90.70
53340;BME280;46212;50.258;19.062;2022-10-16T00:36:59;98695.00;;;11.84;91.05
53340;BME280;46212;50.258;19.062;2022-10-16T00:39:24;98713.75;;;11.89;91.29
53340;BME280;46212;50.258;19.062;2022-10-16T00:41:50;98695.63;;;11.79;91.70
53340;BME280;46212;50.258;19.062;2022-10-16T00:44:48;98705.31;;;11.84;91.87
53340;BME280;46212;50.258;19.062;2022-10-16T00:47:28;98707.63;;;11.85;92.04
53340;BME280;46212;50.258;19.062;2022-10-16T00:50:27;98709.13;;;11.86;92.31
53340;BME280;46212;50.258;19.062;2022-10-16T00:52:54;98699.31;;;11.85;92.37
53340;BME280;46212;50.258;19.062;2022-10-16T00:55:20;98712.53;;;11.81;92.43
53340;BME280;46212;50.258;19.062;2022-10-16T00:57:46;98701.00;;;11.73;92.82
53340;BME280;46212;50.258;19.062;2022-10-16T01:00:16;98704.09;;;11.76;93.26
53340;BME280;46212;50.258;19.062;2022-10-16T01:02:42;98707.16;;;11.78;92.79
53340;BME280;46212;50.258;19.062;2022-10-16T01:05:08;98715.75;;;11.80;92.74
53340;BME280;46212;50.258;19.062;2022-10-16T01:07:45;98711.47;;;11.79;92.61
53340;BME280;46212;50.258;19.062;2022-10-16T01:10:45;98721.28;;;11.80;92.57
53340;BME280;46212;50.258;19.062;2022-10-16T01:13:27;98707.41;;;11.61;93.14
53340;BME280;46212;50.258;19.062;2022-10-16T01:16:00;98716.97;;;11.69;93.26
53340;BME280;46212;50.258;19.062;2022-10-16T01:18:41;98706.81;;;11.57;93.83
53340;BME280;46212;50.258;19.062;2022-10-16T01:21:10;98728.94;;;11.66;93.89
53340;BME280;46212;50.258;19.062;2022-10-16T01:23:43;98722.03;;;11.62;93.95
53340;BME280;46212;50.258;19.062;2022-10-16T01:29:03;98718.97;;;11.69;92.62
53340;BME280;46212;50.258;19.062;2022-10-16T01:31:34;98718.47;;;11.61;93.69
53340;BME280;46212;50.258;19.062;2022-10-16T01:34:24;98716.97;;;11.60;93.43
53340;BME280;46212;50.258;19.062;2022-10-16T01:36:57;98715.41;;;11.59;93.51
53340;BME280;46212;50.258;19.062;2022-10-16T01:39:31;98700.66;;;11.53;92.94
53340;BME280;46212;50.258;19.062;2022-10-16T01:42:03;98697.56;;;11.51;92.32
53340;BME280;46212;50.258;19.062;2022-10-16T01:44:32;98715.72;;;11.61;92.08
53340;BME280;46212;50.258;19.062;2022-10-16T01:46:59;98718.63;;;11.67;92.13
53340;BME280;46212;50.258;19.062;2022-10-16T01:49:27;98715.88;;;11.67;92.93
53340;BME280;46212;50.258;19.062;2022-10-16T01:51:56;98722.69;;;11.75;92.46
53340;BME280;46212;50.258;19.062;2022-10-16T01:54:27;98713.31;;;11.73;92.48
53340;BME280;46212;50.258;19.062;2022-10-16T01:56:54;98716.22;;;11.78;92.54
53340;BME280;46212;50.258;19.062;2022-10-16T01:59:24;98720.84;;;11.72;92.17
53340;BME280;46212;50.258;19.062;2022-10-16T02:01:52;98714.66;;;11.59;92.31
53340;BME280;46212;50.258;19.062;2022-10-16T02:04:31;98732.00;;;11.68;92.53
53340;BME280;46212;50.258;19.062;2022-10-16T02:06:58;98729.69;;;11.67;92.95
53340;BME280;46212;50.258;19.062;2022-10-16T02:09:24;98724.78;;;11.44;94.01
53340;BME280;46212;50.258;19.062;2022-10-16T02:11:51;98723.22;;;11.34;94.02
53340;BME280;46212;50.258;19.062;2022-10-16T02:14:18;98729.38;;;11.38;94.30
53340;BME280;46212;50.258;19.062;2022-10-16T02:16:45;98730.28;;;11.26;94.92
53340;BME280;46212;50.258;19.062;2022-10-16T02:19:15;98741.63;;;11.28;95.20
53340;BME280;46212;50.258;19.062;2022-10-16T02:21:57;98746.69;;;11.29;95.15
53340;BME280;46212;50.258;19.062;2022-10-16T02:24:48;98749.94;;;11.28;95.47
53340;BME280;46212;50.258;19.062;2022-10-16T02:30:19;98754.97;;;11.20;95.30
53340;BME280;46212;50.258;19.062;2022-10-16T02:32:47;98756.00;;;11.13;95.67
53340;BME280;46212;50.258;19.062;2022-10-16T02:35:17;98754.78;;;11.14;95.75
53340;BME280;46212;50.258;19.062;2022-10-16T02:37:43;98754.16;;;11.10;94.96
53340;BME280;46212;50.258;19.062;2022-10-16T02:40:10;98745.06;;;11.01;95.42
53340;BME280;46212;50.258;19.062;2022-10-16T02:42:38;98747.81;;;10.92;95.93
53340;BME280;46212;50.258;19.062;2022-10-16T02:45:05;98748.41;;;10.87;96.43
53340;BME280;46212;50.258;19.062;2022-10-16T02:47:31;98742.41;;;10.88;96.81
53340;BME280;46212;50.258;19.062;2022-10-16T02:49:56;98751.34;;;10.92;96.94
53340;BME280;46212;50.258;19.062;2022-10-16T02:52:21;98735.94;;;10.82;96.50
53340;BME280;46212;50.258;19.062;2022-10-16T02:54:47;98743.44;;;10.82;96.09
53340;BME280;46212;50.258;19.062;2022-10-16T02:57:12;98752.22;;;10.80;96.34
53340;BME280;46212;50.258;19.062;2022-10-16T02:59:38;98745.13;;;10.79;95.94
53340;BME280;46212;50.258;19.062;2022-10-16T03:02:03;98748.06;;;10.85;95.66
53340;BME280;46212;50.258;19.062;2022-10-16T03:04:29;98753.59;;;10.85;95.02
53340;BME280;46212;50.258;19.062;2022-10-16T03:06:54;98759.41;;;10.78;94.28
53340;BME280;46212;50.258;19.062;2022-10-16T03:09:19;98760.25;;;10.65;94.23
53340;BME280;46212;50.258;19.062;2022-10-16T03:11:45;98748.53;;;10.52;95.59
53340;BME280;46212;50.258;19.062;2022-10-16T03:14:10;98769.53;;;10.50;94.87
53340;BME280;46212;50.258;19.062;2022-10-16T03:16:35;98774.16;;;10.53;96.56
53340;BME280;46212;50.258;19.062;2022-10-16T03:19:01;98755.66;;;10.41;96.89
53340;BME280;46212;50.258;19.062;2022-10-16T03:21:26;98757.66;;;10.40;97.86
53340;BME280;46212;50.258;19.062;2022-10-16T03:23:51;98759.38;;;10.47;98.24
53340;BME280;46212;50.258;19.062;2022-10-16T03:26:17;98766.97;;;10.55;98.03
53340;BME280;46212;50.258;19.062;2022-10-16T03:28:42;98754.63;;;10.47;97.95
53340;BME280;46212;50.258;19.062;2022-10-16T03:31:07;98765.72;;;10.56;98.17
53340;BME280;46212;50.258;19.062;2022-10-16T03:33:33;98765.72;;;10.56;97.97
53340;BME280;46212;50.258;19.062;2022-10-16T03:35:59;98768.06;;;10.58;97.63
53340;BME280;46212;50.258;19.062;2022-10-16T03:38:24;98766.75;;;10.50;97.78
53340;BME280;46212;50.258;19.062;2022-10-16T03:40:49;98771.97;;;10.48;97.20
53340;BME280;46212;50.258;19.062;2022-10-16T03:43:15;98766.53;;;10.35;96.35
53340;BME280;46212;50.258;19.062;2022-10-16T03:45:40;98784.34;;;10.43;97.85
53340;BME280;46212;50.258;19.062;2022-10-16T03:48:06;98783.34;;;10.50;96.36
53340;BME280;46212;50.258;19.062;2022-10-16T03:50:31;98782.13;;;10.51;95.35
53340;BME280;46212;50.258;19.062;2022-10-16T03:52:56;98776.72;;;10.47;94.79
53340;BME280;46212;50.258;19.062;2022-10-16T03:55:22;98788.03;;;10.40;93.84
53340;BME280;46212;50.258;19.062;2022-10-16T03:57:47;98786.31;;;10.34;93.57
53340;BME280;46212;50.258;19.062;2022-10-16T04:00:13;98777.97;;;10.46;93.62
53340;BME280;46212;50.258;19.062;2022-10-16T04:02:39;98763.03;;;10.44;92.84
53340;BME280;46212;50.258;19.062;2022-10-16T04:05:04;98783.94;;;10.45;92.74
53340;BME280;46212;50.258;19.062;2022-10-16T04:07:30;98780.94;;;10.30;92.05
53340;BME280;46212;50.258;19.062;2022-10-16T04:09:55;98785.09;;;10.00;92.52
53340;BME280;46212;50.258;19.062;2022-10-16T04:12:22;98779.19;;;9.89;92.97
53340;BME280;46212;50.258;19.062;2022-10-16T04:14:47;98788.75;;;9.97;93.45
53340;BME280;46212;50.258;19.062;2022-10-16T04:17:13;98781.09;;;9.80;94.03
53340;BME280;46212;50.258;19.062;2022-10-16T04:19:38;98789.34;;;9.92;93.64
53340;BME280;46212;50.258;19.062;2022-10-16T04:22:04;98776.03;;;10.00;93.89
53340;BME280;46212;50.258;19.062;2022-10-16T04:24:29;98788.75;;;10.32;93.39
53340;BME280;46212;50.258;19.062;2022-10-16T04:26:54;98780.72;;;10.46;92.86
53340;BME280;46212;50.258;19.062;2022-10-16T04:29:20;98793.41;;;10.44;92.46
53340;BME280;46212;50.258;19.062;2022-10-16T04:31:46;98785.09;;;10.00;93.48
53340;BME280;46212;50.258;19.062;2022-10-16T04:34:11;98780.06;;;9.86;94.28
53340;BME280;46212;50.258;19.062;2022-10-16T04:36:37;98786.31;;;9.99;94.60
53340;BME280;46212;50.258;19.062;2022-10-16T04:39:02;98772.72;;;10.05;94.81
53340;BME280;46212;50.258;19.062;2022-10-16T04:41:28;98774.59;;;10.08;94.34
53340;BME280;46212;50.258;19.062;2022-10-16T04:43:53;98787.63;;;10.07;93.95
53340;BME280;46212;50.258;19.062;2022-10-16T04:46:18;98785.16;;;10.09;94.19
53340;BME280;46212;50.258;19.062;2022-10-16T04:48:44;98776.28;;;9.93;93.48
53340;BME280;46212;50.258;19.062;2022-10-16T04:51:10;98784.31;;;10.00;93.88
53340;BME280;46212;50.258;19.062;2022-10-16T04:53:35;98794.44;;;10.16;94.25
53340;BME280;46212;50.258;19.062;2022-10-16T04:56:01;98796.75;;;9.83;94.23
53340;BME280;46212;50.258;19.062;2022-10-16T04:58:27;98784.00;;;9.64;95.09
53340;BME280;46212;50.258;19.062;2022-10-16T05:00:53;98799.88;;;9.72;94.80
53340;BME280;46212;50.258;19.062;2022-10-16T05:03:18;98791.41;;;9.54;95.01
53340;BME280;46212;50.258;19.062;2022-10-16T05:05:45;98791.41;;;9.54;95.54
53340;BME280;46212;50.258;19.062;2022-10-16T05:08:12;98802.56;;;9.50;96.31
53340;BME280;46212;50.258;19.062;2022-10-16T05:10:38;98798.38;;;9.46;98.48
53340;BME280;46212;50.258;19.062;2022-10-16T05:13:03;98784.38;;;9.40;97.49
53340;BME280;46212;50.258;19.062;2022-10-16T05:15:29;98806.41;;;9.53;96.50
53340;BME280;46212;50.258;19.062;2022-10-16T05:17:55;98804.63;;;9.59;96.46
53340;BME280;46212;50.258;19.062;2022-10-16T05:20:23;98817.00;;;9.67;96.70
53340;BME280;46212;50.258;19.062;2022-10-16T05:22:48;98825.25;;;9.67;96.14
53340;BME280;46212;50.258;19.062;2022-10-16T05:25:14;98821.34;;;9.77;96.28
53340;BME280;46212;50.258;19.062;2022-10-16T05:27:39;98823.34;;;9.64;96.77
53340;BME280;46212;50.258;19.062;2022-10-16T05:30:05;98812.09;;;9.71;97.07
53340;BME280;46212;50.258;19.062;2022-10-16T05:32:31;98830.91;;;9.98;97.24
53340;BME280;46212;50.258;19.062;2022-10-16T05:34:56;98834.97;;;10.06;97.40
53340;BME280;46212;50.258;19.062;2022-10-16T05:37:24;98830.06;;;10.23;96.68
53340;BME280;46212;50.258;19.062;2022-10-16T05:39:49;98831.41;;;10.18;95.49
53340;BME280;46212;50.258;19.062;2022-10-16T05:42:15;98850.38;;;10.29;95.49
53340;BME280;46212;50.258;19.062;2022-10-16T05:44:40;98852.03;;;10.26;94.35
53340;BME280;46212;50.258;19.062;2022-10-16T05:47:05;98832.72;;;10.26;94.51
53340;BME280;46212;50.258;19.062;2022-10-16T05:49:31;98844.34;;;10.43;94.04
53340;BME280;46212;50.258;19.062;2022-10-16T05:51:56;98838.19;;;10.39;93.50
53340;BME280;46212;50.258;19.062;2022-10-16T05:54:21;98841.84;;;10.36;93.26
53340;BME280;46212;50.258;19.062;2022-10-16T05:56:47;98861.41;;;10.29;93.99
53340;BME280;46212;50.258;19.062;2022-10-16T05:59:12;98860.13;;;10.21;94.28
53340;BME280;46212;50.258;19.062;2022-10-16T06:01:38;98862.97;;;10.30;94.32
53340;BME280;46212;50.258;19.062;2022-10-16T06:04:03;98863.63;;;10.34;94.37
53340;BME280;46212;50.258;19.062;2022-10-16T06:06:29;98860.69;;;10.37;94.25
53340;BME280;46212;50.258;19.062;2022-10-16T06:08:56;98857.56;;;10.48;94.01
53340;BME280;46212;50.258;19.062;2022-10-16T06:11:28;98866.25;;;10.59;93.90
53340;BME280;46212;50.258;19.062;2022-10-16T06:13:57;98888.91;;;10.76;93.21
53340;BME280;46212;50.258;19.062;2022-10-16T06:16:24;98877.34;;;10.90;92.97
53340;BME280;46212;50.258;19.062;2022-10-16T06:18:52;98889.94;;;11.12;92.80
53340;BME280;46212;50.258;19.062;2022-10-16T06:21:20;98898.47;;;11.36;91.85
53340;BME280;46212;50.258;19.062;2022-10-16T06:23:46;98900.16;;;11.34;91.22
53340;BME280;46212;50.258;19.062;2022-10-16T06:26:14;98884.75;;;11.24;91.67
53340;BME280;46212;50.258;19.062;2022-10-16T06:28:39;98907.81;;;11.30;91.93
53340;BME280;46212;50.258;19.062;2022-10-16T06:31:06;98911.94;;;11.56;91.20
53340;BME280;46212;50.258;19.062;2022-10-16T06:33:32;98911.53;;;11.66;90.87
53340;BME280;46212;50.258;19.062;2022-10-16T06:36:16;98923.09;;;11.74;91.06
53340;BME280;46212;50.258;19.062;2022-10-16T06:38:42;98911.13;;;11.77;91.55
53340;BME280;46212;50.258;19.062;2022-10-16T06:41:11;98919.31;;;11.90;91.35
53340;BME280;46212;50.258;19.062;2022-10-16T06:43:37;98918.41;;;12.02;91.28
53340;BME280;46212;50.258;19.062;2022-10-16T06:46:04;98916.50;;;12.30;91.00
53340;BME280;46212;50.258;19.062;2022-10-16T06:48:30;98916.19;;;12.64;90.34
53340;BME280;46212;50.258;19.062;2022-10-16T06:51:03;98917.56;;;12.87;89.23
53340;BME280;46212;50.258;19.062;2022-10-16T06:53:31;98897.38;;;12.95;88.50
53340;BME280;46212;50.258;19.062;2022-10-16T06:55:57;98909.53;;;13.25;87.43
53340;BME280;46212;50.258;19.062;2022-10-16T06:58:23;98913.97;;;13.32;87.15
53340;BME280;46212;50.258;19.062;2022-10-16T07:00:49;98907.00;;;13.36;86.09
53340;BME280;46212;50.258;19.062;2022-10-16T07:03:14;98915.03;;;13.76;85.08
53340;BME280;46212;50.258;19.062;2022-10-16T07:05:41;98924.47;;;14.02;83.57
53340;BME280;46212;50.258;19.062;2022-10-16T07:08:06;98913.53;;;13.99;82.42
53340;BME280;46212;50.258;19.062;2022-10-16T07:10:32;98927.50;;;14.13;81.08
53340;BME280;46212;50.258;19.062;2022-10-16T07:12:58;98929.75;;;14.48;80.15
53340;BME280;46212;50.258;19.062;2022-10-16T07:15:25;98931.06;;;14.61;79.21
53340;BME280;46212;50.258;19.062;2022-10-16T07:17:50;98925.31;;;14.65;79.76
53340;BME280;46212;50.258;19.062;2022-10-16T07:20:16;98925.81;;;14.78;78.47
53340;BME280;46212;50.258;19.062;2022-10-16T07:22:41;98927.94;;;14.83;78.60
53340;BME280;46212;50.258;19.062;2022-10-16T07:25:07;98924.22;;;15.01;77.02
53340;BME280;46212;50.258;19.062;2022-10-16T07:27:33;98928.81;;;15.04;75.73
53340;BME280;46212;50.258;19.062;2022-10-16T07:29:59;98925.38;;;15.09;75.04
53340;BME280;46212;50.258;19.062;2022-10-16T07:32:24;98933.06;;;15.28;73.18
53340;BME280;46212;50.258;19.062;2022-10-16T07:34:51;98940.91;;;15.44;72.44
53340;BME280;46212;50.258;19.062;2022-10-16T07:37:16;98940.38;;;15.55;72.04
53340;BME280;46212;50.258;19.062;2022-10-16T07:39:42;98940.16;;;15.73;71.59
53340;BME280;46212;50.258;19.062;2022-10-16T07:42:07;98950.53;;;15.73;70.50
53340;BME280;46212;50.258;19.062;2022-10-16T07:44:33;98941.13;;;15.85;70.42
53340;BME280;46212;50.258;19.062;2022-10-16T07:46:58;98943.47;;;16.07;69.40
53340;BME280;46212;50.258;19.062;2022-10-16T07:49:24;98941.75;;;16.29;68.50
53340;BME280;46212;50.258;19.062;2022-10-16T07:51:49;98952.19;;;16.34;68.45
53340;BME280;46212;50.258;19.062;2022-10-16T07:54:15;98956.25;;;16.54;67.72
53340;BME280;46212;50.258;19.062;2022-10-16T07:56:40;98951.72;;;16.36;68.15
53340;BME280;46212;50.258;19.062;2022-10-16T07:59:06;98951.94;;;16.32;68.49
53340;BME280;46212;50.258;19.062;2022-10-16T08:01:31;98959.28;;;16.15;69.03
53340;BME280;46212;50.258;19.062;2022-10-16T08:03:56;98954.69;;;16.12;68.98
53340;BME280;46212;50.258;19.062;2022-10-16T08:06:22;98949.81;;;16.27;68.56
53340;BME280;46212;50.258;19.062;2022-10-16T08:08:48;98954.00;;;16.37;68.52
53340;BME280;46212;50.258;19.062;2022-10-16T08:11:13;98969.91;;;16.52;68.37
53340;BME280;46212;50.258;19.062;2022-10-16T08:13:40;98963.19;;;16.58;66.85
53340;BME280;46212;50.258;19.062;2022-10-16T08:16:06;98958.16;;;16.82;66.82
53340;BME280;46212;50.258;19.062;2022-10-16T08:18:36;98957.63;;;17.04;65.67
53340;BME280;46212;50.258;19.062;2022-10-16T08:21:02;98953.31;;;17.29;65.67
53340;BME280;46212;50.258;19.062;2022-10-16T08:23:28;98943.66;;;17.24;64.60
53340;BME280;46212;50.258;19.062;2022-10-16T08:25:55;98960.25;;;17.39;64.42
53340;BME280;46212;50.258;19.062;2022-10-16T08:28:21;98960.22;;;17.33;64.21
53340;BME280;46212;50.258;19.062;2022-10-16T08:30:46;98958.97;;;17.60;64.12
53340;BME280;46212;50.258;19.062;2022-10-16T08:33:12;98958.97;;;17.60;62.90
53340;BME280;46212;50.258;19.062;2022-10-16T08:35:37;98968.97;;;17.72;63.12
53340;BME280;46212;50.258;19.062;2022-10-16T08:38:04;98968.69;;;17.70;62.37
53340;BME280;46212;50.258;19.062;2022-10-16T08:40:32;98975.78;;;17.97;61.70
53340;BME280;46212;50.258;19.062;2022-10-16T08:46:17;98982.56;;;18.27;61.10
53340;BME280;46212;50.258;19.062;2022-10-16T08:48:56;98976.28;;;18.38;59.61
53340;BME280;46212;50.258;19.062;2022-10-16T08:51:32;98982.72;;;18.49;59.61
53340;BME280;46212;50.258;19.062;2022-10-16T08:54:02;98984.88;;;18.29;60.15
53340;BME280;46212;50.258;19.062;2022-10-16T08:56:28;98986.91;;;18.28;60.13
53340;BME280;46212;50.258;19.062;2022-10-16T08:58:54;98991.56;;;18.42;60.18
53340;BME280;46212;50.258;19.062;2022-10-16T09:01:21;98984.31;;;18.19;59.65
53340;BME280;46212;50.258;19.062;2022-10-16T09:06:56;98976.97;;;18.27;59.90
53340;BME280;46212;50.258;19.062;2022-10-16T09:12:10;98985.03;;;18.51;59.62
53340;BME280;46212;50.258;19.062;2022-10-16T09:14:52;98987.16;;;18.67;59.64
53340;BME280;46212;50.258;19.062;2022-10-16T09:19:53;98987.94;;;18.68;58.52
53340;BME280;46212;50.258;19.062;2022-10-16T09:22:21;98975.47;;;18.74;57.35
53340;BME280;46212;50.258;19.062;2022-10-16T09:24:49;98996.88;;;18.83;58.03
53340;BME280;46212;50.258;19.062;2022-10-16T09:27:15;98995.09;;;18.80;58.53
53340;BME280;46212;50.258;19.062;2022-10-16T09:29:41;99000.38;;;18.67;58.03
53340;BME280;46212;50.258;19.062;2022-10-16T09:32:11;99006.06;;;18.46;59.46
53340;BME280;46212;50.258;19.062;2022-10-16T09:34:42;98996.19;;;19.04;58.40
53340;BME280;46212;50.258;19.062;2022-10-16T09:37:12;98996.81;;;18.72;60.31
53340;BME280;46212;50.258;19.062;2022-10-16T09:39:50;98988.03;;;18.90;58.53
53340;BME280;46212;50.258;19.062;2022-10-16T09:42:20;99010.22;;;19.16;58.59
53340;BME280;46212;50.258;19.062;2022-10-16T09:44:49;99005.75;;;19.51;57.07
53340;BME280;46212;50.258;19.062;2022-10-16T09:47:29;99009.88;;;19.84;56.36
53340;BME280;46212;50.258;19.062;2022-10-16T09:50:04;99012.16;;;19.74;56.12
53340;BME280;46212;50.258;19.062;2022-10-16T09:52:32;99012.41;;;19.76;56.15
53340;BME280;46212;50.258;19.062;2022-10-16T09:54:59;99020.56;;;20.07;55.52
53340;BME280;46212;50.258;19.062;2022-10-16T09:57:26;99007.31;;;20.02;55.02
53340;BME280;46212;50.258;19.062;2022-10-16T09:59:56;99015.22;;;19.93;55.36
53340;BME280;46212;50.258;19.062;2022-10-16T10:02:35;99022.38;;;19.94;55.74
53340;BME280;46212;50.258;19.062;2022-10-16T10:05:04;99001.97;;;19.99;55.14
53340;BME280;46212;50.258;19.062;2022-10-16T10:07:32;99010.38;;;20.15;55.22
53340;BME280;46212;50.258;19.062;2022-10-16T10:10:00;99010.38;;;20.27;54.71
53340;BME280;46212;50.258;19.062;2022-10-16T10:12:28;99012.69;;;20.06;55.16
53340;BME280;46212;50.258;19.062;2022-10-16T10:14:58;99009.63;;;20.26;55.34
53340;BME280;46212;50.258;19.062;2022-10-16T10:17:29;99010.38;;;20.15;55.33
53340;BME280;46212;50.258;19.062;2022-10-16T10:19:57;99002.69;;;20.49;54.33
53340;BME280;46212;50.258;19.062;2022-10-16T10:22:41;99019.81;;;20.07;55.69
53340;BME280;46212;50.258;19.062;2022-10-16T10:25:15;99019.53;;;20.22;55.27
53340;BME280;46212;50.258;19.062;2022-10-16T10:28:03;99022.63;;;20.12;55.04
53340;BME280;46212;50.258;19.062;2022-10-16T10:33:21;99033.56;;;20.44;54.60
53340;BME280;46212;50.258;19.062;2022-10-16T10:36:14;99026.94;;;19.86;55.55
53340;BME280;46212;50.258;19.062;2022-10-16T10:41:20;99030.00;;;19.99;56.01
53340;BME280;46212;50.258;19.062;2022-10-16T10:46:34;99019.06;;;20.06;55.52
53340;BME280;46212;50.258;19.062;2022-10-16T10:54:37;99015.47;;;19.89;56.21
53340;BME280;46212;50.258;19.062;2022-10-16T11:05:56;99015.97;;;19.77;56.67
53340;BME280;46212;50.258;19.062;2022-10-16T11:08:33;99003.75;;;19.74;56.81
53340;BME280;46212;50.258;19.062;2022-10-16T11:11:04;99006.81;;;19.87;57.12
53340;BME280;46212;50.258;19.062;2022-10-16T11:14:00;99009.09;;;20.05;56.08
53340;BME280;46212;50.258;19.062;2022-10-16T11:16:31;99006.03;;;20.31;55.73
53340;BME280;46212;50.258;19.062;2022-10-16T11:19:33;99006.00;;;20.42;54.80
53340;BME280;46212;50.258;19.062;2022-10-16T11:22:17;99003.22;;;20.42;54.87
53340;BME280;46212;50.258;19.062;2022-10-16T11:24:53;99004.78;;;20.32;55.48
53340;BME280;46212;50.258;19.062;2022-10-16T11:27:34;99011.41;;;20.35;55.59
53340;BME280;46212;50.258;19.062;2022-10-16T11:30:05;99020.28;;;20.50;54.92
53340;BME280;46212;50.258;19.062;2022-10-16T11:32:38;99011.13;;;20.22;55.41
53340;BME280;46212;50.258;19.062;2022-10-16T11:35:19;99011.13;;;20.38;55.36
53340;BME280;46212;50.258;19.062;2022-10-16T11:37:49;99004.00;;;20.37;55.58
53340;BME280;46212;50.258;19.062;2022-10-16T11:40:23;99000.63;;;20.55;54.94
53340;BME280;46212;50.258;19.062;2022-10-16T11:43:13;99007.25;;;20.63;54.57
53340;BME280;46212;50.258;19.062;2022-10-16T11:45:44;99018.72;;;20.65;55.22
53340;BME280;46212;50.258;19.062;2022-10-16T11:53:18;99005.50;;;21.24;54.05
53340;BME280;46212;50.258;19.062;2022-10-16T11:55:46;99013.84;;;21.35;52.50
53340;BME280;46212;50.258;19.062;2022-10-16T11:58:26;99021.69;;;21.53;51.51
53340;BME280;46212;50.258;19.062;2022-10-16T12:01:28;99023.28;;;21.78;51.71
53340;BME280;46212;50.258;19.062;2022-10-16T12:06:43;99026.75;;;22.25;49.31
53340;BME280;46212;50.258;19.062;2022-10-16T12:09:23;99014.81;;;22.67;48.05
53340;BME280;46212;50.258;19.062;2022-10-16T12:11:50;99025.25;;;22.97;48.43
53340;BME280;46212;50.258;19.062;2022-10-16T12:16:57;99030.47;;;23.30;46.54
53340;BME280;46212;50.258;19.062;2022-10-16T12:19:26;99032.63;;;23.43;46.00
53340;BME280;46212;50.258;19.062;2022-10-16T12:21:56;99020.41;;;23.72;45.24
53340;BME280;46212;50.258;19.062;2022-10-16T12:26:48;99040.50;;;24.32;43.74
53340;BME280;46212;50.258;19.062;2022-10-16T12:32:05;99036.03;;;24.05;44.15
53340;BME280;46212;50.258;19.062;2022-10-16T12:34:39;99035.09;;;23.84;45.37
53340;BME280;46212;50.258;19.062;2022-10-16T12:37:27;99050.94;;;23.12;46.17
53340;BME280;46212;50.258;19.062;2022-10-16T12:39:55;99036.53;;;23.40;46.13
53340;BME280;46212;50.258;19.062;2022-10-16T12:44:54;99045.19;;;22.26;48.63
53340;BME280;46212;50.258;19.062;2022-10-16T12:47:36;99040.25;;;22.02;49.91
53340;BME280;46212;50.258;19.062;2022-10-16T12:50:02;99039.88;;;22.17;49.64
53340;BME280;46212;50.258;19.062;2022-10-16T12:54:56;99043.31;;;21.63;51.82
53340;BME280;46212;50.258;19.062;2022-10-16T13:00:28;99046.50;;;21.84;51.41
53340;BME280;46212;50.258;19.062;2022-10-16T13:11:17;99050.94;;;21.22;54.43
53340;BME280;46212;50.258;19.062;2022-10-16T13:22:23;99039.63;;;23.73;48.30
53340;BME280;46212;50.258;19.062;2022-10-16T13:25:34;99043.91;;;27.80;39.21
53340;BME280;46212;50.258;19.062;2022-10-16T13:28:04;99044.00;;;29.41;36.29
53340;BME280;46212;50.258;19.062;2022-10-16T13:30:37;99042.16;;;31.17;32.51
53340;BME280;46212;50.258;19.062;2022-10-16T13:33:10;99044.94;;;28.89;35.81
53340;BME280;46212;50.258;19.062;2022-10-16T13:35:50;99050.50;;;27.75;38.58
53340;BME280;46212;50.258;19.062;2022-10-16T13:38:21;99051.94;;;27.18;39.44
53340;BME280;46212;50.258;19.062;2022-10-16T13:43:19;99051.88;;;24.08;46.59
53340;BME280;46212;50.258;19.062;2022-10-16T13:45:57;99048.56;;;24.67;45.09
53340;BME280;46212;50.258;19.062;2022-10-16T13:48:23;99045.50;;;27.53;39.98
53340;BME280;46212;50.258;19.062;2022-10-16T13:53:34;99037.44;;;31.73;31.32
53340;BME280;46212;50.258;19.062;2022-10-16T13:56:01;99042.06;;;32.58;30.06
53340;BME280;46212;50.258;19.062;2022-10-16T13:58:27;99045.53;;;32.21;30.22
53340;BME280;46212;50.258;19.062;2022-10-16T14:01:04;99033.16;;;29.87;33.48
53340;BME280;46212;50.258;19.062;2022-10-16T14:03:33;99027.81;;;32.32;30.46
53340;BME280;46212;50.258;19.062;2022-10-16T14:06:03;99021.66;;;34.17;28.22
53340;BME280;46212;50.258;19.062;2022-10-16T14:08:30;99019.56;;;33.49;28.56
53340;BME280;46212;50.258;19.062;2022-10-16T14:11:00;99039.59;;;35.01;26.81
53340;BME280;46212;50.258;19.062;2022-10-16T14:15:54;99044.75;;;36.12;24.93
53340;BME280;46212;50.258;19.062;2022-10-16T14:18:25;99057.50;;;31.04;31.41
53340;BME280;46212;50.258;19.062;2022-10-16T14:20:52;99049.56;;;31.64;31.81
53340;BME280;46212;50.258;19.062;2022-10-16T14:23:22;99056.59;;;32.99;28.96
53340;BME280;46212;50.258;19.062;2022-10-16T14:25:48;99068.56;;;31.35;31.16
53340;BME280;46212;50.258;19.062;2022-10-16T14:28:23;99068.28;;;34.08;27.42